Tannersville, Pennsylvania
Current Conditions -  °F | °C
As of 1:53 AM on Thursday 23 Oct 2014 (Local Time) from KMPO Reporting Station
Light Rain Light Rain  
Wind Chill: 38°   Ceiling: 1100
Heat Index: 45°   Visibility: 10mi
Dew Point: 41°   Wind: 16mph
Humidity: 86%   Direction: 350°N
Pressure: 29.82"   Gusts: 29mph
Location:  41.04°N, 75.31°W
Report Text: KMPO 230553Z AUTO 35014G25KT 10SM -RA OVC011 07/05 A2982 RMK AO2 PK WND 34028/0500 RAE20B45 SLP104 6//// T00720050 10089 20072 56013 TSNO PNO $
Loading
Personal Weather Stations






























Interactive Weather Map
Tropical Storm Tracking
New forecast layout! Learn more

10-Day Weather Forecast

Advertisements
Track Severe Weather on mobile